Time;durP1;ratioP1;P1;durP2;ratioP2;P2;SDS_P1;SDS_P2;PMS_P1;PMS_P2;Temp;Humidity;BMP_temperature;BMP_pressure;BME280_temperature;BME280_humidity;BME280_pressure;Samples;Min_cycle;Max_cycle;Signal;HPM_P1;HPM_P2
2022/09/14 00:00:10;;;;;;;6.72;5.03;;;;;;;;;;4997993;28;20061;-79
2022/09/14 00:02:36;;;;;;;9.85;6.07;;;;;;;;;;5016830;28;20046;-80
2022/09/14 00:05:03;;;;;;;8.82;5.60;;;;;;;;;;5017789;28;20073;-81
2022/09/14 00:07:29;;;;;;;8.60;5.45;;;;;;;;;;5023522;28;20122;-80
2022/09/14 00:09:56;;;;;;;6.82;5.10;;;;;;;;;;5016824;28;20144;-80
2022/09/14 00:12:23;;;;;;;7.55;5.15;;;;;;;;;;5019706;28;20057;-80
2022/09/14 00:14:50;;;;;;;6.72;5.15;;;;;;;;;;5018832;28;20050;-80
2022/09/14 00:17:16;;;;;;;7.43;5.40;;;;;;;;;;5018587;28;20046;-80
2022/09/14 00:19:43;;;;;;;7.40;5.20;;;;;;;;;;5019936;28;20076;-80
2022/09/14 00:22:09;;;;;;;8.32;5.05;;;;;;;;;;5020511;28;20065;-80
2022/09/14 00:24:36;;;;;;;8.82;4.85;;;;;;;;;;5020648;28;20128;-79
2022/09/14 00:27:02;;;;;;;8.15;5.40;;;;;;;;;;5003934;28;20049;-80
2022/09/14 00:29:29;;;;;;;9.32;4.97;;;;;;;;;;5020704;28;20046;-80
2022/09/14 00:31:55;;;;;;;7.22;5.40;;;;;;;;;;5020801;28;20132;-80
2022/09/14 00:34:22;;;;;;;13.52;5.18;;;;;;;;;;5012041;28;20057;-80
2022/09/14 00:36:49;;;;;;;9.77;5.20;;;;;;;;;;5012873;28;20204;-80
2022/09/14 00:39:17;;;;;;;11.88;5.32;;;;;;;;;;5012743;28;20041;-78
2022/09/14 00:41:44;;;;;;;10.88;5.68;;;;;;;;;;5014036;28;20050;-79
2022/09/14 00:44:11;;;;;;;8.50;5.28;;;;;;;;;;5015244;28;20056;-80
2022/09/14 00:46:45;;;;;;;7.25;5.07;;;;;;;;;;5026841;28;20053;-81
2022/09/14 00:49:23;;;;;;;7.38;5.07;;;;;;;;;;5034663;28;20050;-82
2022/09/14 00:51:55;;;;;;;9.82;5.50;;;;;;;;;;5026290;28;20050;-80
2022/09/14 00:54:21;;;;;;;8.77;5.93;;;;;;;;;;5020179;28;20661;-81
2022/09/14 00:56:48;;;;;;;8.77;5.45;;;;;;;;;;5020776;28;20050;-80
2022/09/14 00:59:26;;;;;;;8.90;5.30;;;;;;;;;;5000034;28;20062;-80
2022/09/14 01:01:52;;;;;;;9.43;5.45;;;;;;;;;;5018613;28;20084;-80
2022/09/14 01:04:19;;;;;;;7.93;5.38;;;;;;;;;;5008759;28;20054;-80
2022/09/14 01:06:51;;;;;;;8.40;5.40;;;;;;;;;;4999675;28;20052;-79
2022/09/14 01:09:20;;;;;;;8.10;5.40;;;;;;;;;;4999048;28;20145;-79
2022/09/14 01:11:50;;;;;;;7.95;5.45;;;;;;;;;;5007821;28;20132;-79
2022/09/14 01:14:20;;;;;;;9.68;5.70;;;;;;;;;;5018613;28;20469;-79
2022/09/14 01:16:54;;;;;;;7.80;5.43;;;;;;;;;;5022877;28;20061;-79
2022/09/14 01:19:33;;;;;;;9.73;5.60;;;;;;;;;;5017270;28;20060;-79
2022/09/14 01:22:04;;;;;;;9.50;5.45;;;;;;;;;;5015316;28;20057;-81
2022/09/14 01:24:46;;;;;;;8.27;5.57;;;;;;;;;;5019236;28;20045;-80
2022/09/14 01:27:18;;;;;;;8.73;5.72;;;;;;;;;;5020470;28;20438;-80
2022/09/14 01:29:56;;;;;;;10.60;6.30;;;;;;;;;;5018396;28;20073;-80
2022/09/14 01:32:23;;;;;;;9.20;5.35;;;;;;;;;;5002810;28;20058;-80
2022/09/14 01:34:53;;;;;;;8.07;5.95;;;;;;;;;;5018962;28;20069;-80
2022/09/14 01:37:23;;;;;;;8.25;5.60;;;;;;;;;;5002852;28;20058;-80
2022/09/14 01:39:52;;;;;;;9.07;6.18;;;;;;;;;;5018907;28;20049;-80
2022/09/14 01:42:20;;;;;;;8.57;5.80;;;;;;;;;;5021277;28;20080;-79
2022/09/14 01:44:48;;;;;;;10.52;5.70;;;;;;;;;;5027642;28;20049;-79
2022/09/14 01:47:16;;;;;;;8.77;5.95;;;;;;;;;;5026255;28;20105;-79
2022/09/14 01:49:45;;;;;;;11.75;5.85;;;;;;;;;;5026573;28;20042;-80
2022/09/14 01:52:15;;;;;;;11.48;5.90;;;;;;;;;;5030639;28;20096;-79
2022/09/14 01:54:42;;;;;;;9.70;5.60;;;;;;;;;;5030748;28;20049;-80
2022/09/14 01:57:20;;;;;;;7.15;5.32;;;;;;;;;;5030471;28;20049;-81
2022/09/14 01:59:48;;;;;;;7.95;5.82;;;;;;;;;;5030594;28;20105;-79
2022/09/14 02:02:21;;;;;;;8.82;5.97;;;;;;;;;;5030644;28;20058;-80
2022/09/14 02:04:47;;;;;;;13.40;6.53;;;;;;;;;;5016906;28;20042;-81
2022/09/14 02:07:14;;;;;;;10.40;6.30;;;;;;;;;;5010469;28;20138;-80
2022/09/14 02:09:41;;;;;;;7.97;6.35;;;;;;;;;;5008762;28;20061;-79
2022/09/14 02:12:08;;;;;;;8.48;6.30;;;;;;;;;;5009471;28;20076;-80
2022/09/14 02:14:34;;;;;;;9.80;6.35;;;;;;;;;;4998330;28;20050;-78
2022/09/14 02:17:01;;;;;;;9.18;6.47;;;;;;;;;;4998675;28;20065;-80
2022/09/14 02:19:30;;;;;;;11.57;6.28;;;;;;;;;;4998057;28;20050;-79
2022/09/14 02:21:56;;;;;;;8.73;5.53;;;;;;;;;;5003279;28;20046;-79
2022/09/14 02:24:22;;;;;;;9.95;5.60;;;;;;;;;;5002476;28;20050;-81
2022/09/14 02:26:50;;;;;;;8.70;5.85;;;;;;;;;;5002262;28;20050;-80
2022/09/14 02:29:16;;;;;;;8.23;5.80;;;;;;;;;;4999945;28;20094;-81
2022/09/14 02:31:53;;;;;;;8.73;5.45;;;;;;;;;;5002849;28;20059;-82
2022/09/14 02:34:33;;;;;;;8.05;6.00;;;;;;;;;;5003955;28;20125;-80
2022/09/14 02:37:14;;;;;;;8.23;6.35;;;;;;;;;;5001823;28;20078;-79
2022/09/14 02:39:53;;;;;;;8.80;6.13;;;;;;;;;;5002647;28;20066;-81
2022/09/14 02:42:23;;;;;;;8.68;6.57;;;;;;;;;;5003825;28;20058;-80
2022/09/14 02:45:12;;;;;;;10.82;6.80;;;;;;;;;;4987298;28;20593;-81
2022/09/14 02:47:42;;;;;;;9.52;6.80;;;;;;;;;;5004800;28;20054;-80
2022/09/14 02:50:14;;;;;;;12.73;6.82;;;;;;;;;;5003487;28;20133;-80
2022/09/14 02:53:00;;;;;;;10.70;6.55;;;;;;;;;;5005011;28;20046;-81
2022/09/14 02:55:30;;;;;;;13.63;7.00;;;;;;;;;;5000560;28;20086;-80
2022/09/14 02:58:02;;;;;;;10.55;6.82;;;;;;;;;;5005450;28;20157;-80
2022/09/14 03:00:29;;;;;;;10.68;7.30;;;;;;;;;;5006090;28;20047;-79
2022/09/14 03:02:56;;;;;;;12.65;8.35;;;;;;;;;;4979703;28;20053;-80
2022/09/14 03:05:23;;;;;;;15.57;7.85;;;;;;;;;;4999777;28;20068;-80
2022/09/14 03:07:49;;;;;;;13.35;7.57;;;;;;;;;;5022289;28;20050;-79
2022/09/14 03:10:16;;;;;;;13.32;8.75;;;;;;;;;;5019960;28;20054;-80
2022/09/14 03:12:42;;;;;;;16.95;8.63;;;;;;;;;;5015064;28;20117;-79
2022/09/14 03:15:09;;;;;;;10.88;7.22;;;;;;;;;;5032202;28;20109;-80
2022/09/14 03:17:35;;;;;;;9.30;7.05;;;;;;;;;;5034822;28;20044;-79
2022/09/14 03:20:02;;;;;;;12.63;7.65;;;;;;;;;;5025677;28;20076;-80
2022/09/14 03:22:29;;;;;;;17.80;8.43;;;;;;;;;;5020382;28;20052;-79
2022/09/14 03:24:55;;;;;;;13.25;8.95;;;;;;;;;;5019520;28;20145;-80
2022/09/14 03:27:21;;;;;;;12.70;8.20;;;;;;;;;;5020600;28;20046;-79
2022/09/14 03:29:48;;;;;;;13.73;8.82;;;;;;;;;;5000434;28;20068;-80
2022/09/14 03:32:14;;;;;;;13.95;8.63;;;;;;;;;;5002684;28;20073;-80
2022/09/14 03:34:40;;;;;;;14.40;9.23;;;;;;;;;;4998160;28;20263;-80
2022/09/14 03:37:07;;;;;;;13.25;9.23;;;;;;;;;;4999670;28;20146;-78
2022/09/14 03:39:33;;;;;;;14.07;9.63;;;;;;;;;;4997252;28;20051;-78
2022/09/14 03:42:00;;;;;;;16.63;9.88;;;;;;;;;;4998672;28;20069;-81
2022/09/14 03:44:26;;;;;;;14.77;10.35;;;;;;;;;;4997686;28;20061;-81
2022/09/14 03:46:52;;;;;;;11.63;9.13;;;;;;;;;;4999146;28;20073;-80
2022/09/14 03:49:19;;;;;;;14.82;9.23;;;;;;;;;;4996949;28;20050;-80
2022/09/14 03:51:47;;;;;;;17.90;9.57;;;;;;;;;;4997205;28;20055;-80
2022/09/14 03:54:13;;;;;;;13.38;9.02;;;;;;;;;;4996221;28;20108;-80
2022/09/14 03:56:40;;;;;;;17.77;9.93;;;;;;;;;;4997841;28;20066;-80
2022/09/14 03:59:09;;;;;;;17.88;10.18;;;;;;;;;;4994303;28;20133;-79
2022/09/14 04:01:36;;;;;;;17.65;8.70;;;;;;;;;;4994920;28;20046;-79
2022/09/14 04:04:03;;;;;;;12.55;7.85;;;;;;;;;;4992828;28;20120;-80
2022/09/14 04:06:31;;;;;;;15.13;8.73;;;;;;;;;;4993438;28;20054;-80
2022/09/14 04:08:58;;;;;;;18.48;9.38;;;;;;;;;;4992307;28;20522;-79
2022/09/14 04:11:24;;;;;;;15.93;7.72;;;;;;;;;;4993703;28;20050;-80
2022/09/14 04:13:51;;;;;;;12.82;7.78;;;;;;;;;;4992451;28;20058;-80
2022/09/14 04:16:19;;;;;;;17.63;8.52;;;;;;;;;;4994087;28;20149;-80
2022/09/14 04:18:46;;;;;;;14.43;7.70;;;;;;;;;;4992366;28;20058;-80
2022/09/14 04:21:13;;;;;;;14.77;8.55;;;;;;;;;;4994452;28;20050;-82
2022/09/14 04:23:40;;;;;;;14.82;8.30;;;;;;;;;;4994709;28;20054;-82
2022/09/14 04:26:27;;;;;;;18.35;8.15;;;;;;;;;;4993805;28;20043;-82
2022/09/14 04:28:54;;;;;;;14.30;8.95;;;;;;;;;;4997922;28;20046;-77
2022/09/14 04:31:21;;;;;;;19.38;9.80;;;;;;;;;;4990210;28;20042;-78
2022/09/14 04:33:49;;;;;;;18.70;9.68;;;;;;;;;;4989311;28;20055;-79
2022/09/14 04:36:17;;;;;;;14.88;8.48;;;;;;;;;;4994112;28;20042;-81
2022/09/14 04:38:43;;;;;;;18.83;8.98;;;;;;;;;;4993325;28;20065;-81
2022/09/14 04:41:11;;;;;;;17.67;8.77;;;;;;;;;;4977193;28;20058;-81
2022/09/14 04:43:38;;;;;;;14.88;8.85;;;;;;;;;;4994291;28;20081;-82
2022/09/14 04:46:06;;;;;;;19.77;9.48;;;;;;;;;;4993874;28;20412;-82
2022/09/14 04:48:34;;;;;;;18.17;8.50;;;;;;;;;;4975103;28;20080;-81
2022/09/14 04:51:17;;;;;;;15.77;9.23;;;;;;;;;;4994450;28;20054;-82
2022/09/14 04:53:45;;;;;;;15.52;8.82;;;;;;;;;;4993662;28;20050;-82
2022/09/14 04:56:12;;;;;;;14.90;8.80;;;;;;;;;;4994072;28;20046;-82
2022/09/14 04:58:43;;;;;;;18.15;8.70;;;;;;;;;;4995073;28;20061;-82
2022/09/14 05:01:16;;;;;;;15.77;8.60;;;;;;;;;;4994018;28;20054;-82
2022/09/14 05:03:43;;;;;;;17.92;8.90;;;;;;;;;;4988967;28;20100;-80
2022/09/14 05:06:13;;;;;;;15.65;8.70;;;;;;;;;;4990859;28;20047;-80
2022/09/14 05:08:40;;;;;;;17.60;9.10;;;;;;;;;;4994855;28;20165;-79
2022/09/14 05:11:07;;;;;;;14.38;8.73;;;;;;;;;;5007114;28;20054;-79
2022/09/14 05:13:34;;;;;;;14.48;8.68;;;;;;;;;;4973643;28;20050;-80
2022/09/14 05:16:05;;;;;;;22.08;10.05;;;;;;;;;;4992021;28;20050;-81
2022/09/14 05:18:32;;;;;;;17.02;9.25;;;;;;;;;;4993491;28;20113;-81
2022/09/14 05:21:05;;;;;;;16.83;8.98;;;;;;;;;;4975072;28;20508;-82
2022/09/14 05:23:34;;;;;;;18.00;8.85;;;;;;;;;;4990717;28;20084;-81
2022/09/14 05:26:00;;;;;;;15.82;8.60;;;;;;;;;;4997980;28;20104;-82
2022/09/14 05:28:27;;;;;;;17.85;8.65;;;;;;;;;;4989096;28;20057;-84
2022/09/14 05:30:54;;;;;;;14.98;9.23;;;;;;;;;;4992687;28;20494;-84
2022/09/14 05:33:21;;;;;;;16.15;8.60;;;;;;;;;;4975923;28;20088;-83
2022/09/14 05:35:47;;;;;;;19.85;9.40;;;;;;;;;;4993927;28;20046;-80
2022/09/14 05:38:14;;;;;;;14.05;8.25;;;;;;;;;;4991996;28;20418;-82
2022/09/14 05:40:40;;;;;;;16.15;8.48;;;;;;;;;;4995405;28;20046;-82
2022/09/14 05:43:07;;;;;;;17.88;8.95;;;;;;;;;;4991417;28;20053;-81
2022/09/14 05:45:33;;;;;;;16.55;8.57;;;;;;;;;;4974096;28;20054;-83
2022/09/14 05:48:03;;;;;;;16.77;8.48;;;;;;;;;;4992064;28;20042;-83
2022/09/14 05:50:30;;;;;;;15.65;8.70;;;;;;;;;;4991959;28;20050;-83
2022/09/14 05:52:56;;;;;;;18.63;8.50;;;;;;;;;;4992699;28;20053;-85
2022/09/14 05:55:23;;;;;;;15.65;8.43;;;;;;;;;;4992387;28;20495;-84
2022/09/14 05:57:49;;;;;;;17.80;8.43;;;;;;;;;;4991237;28;20097;-82
2022/09/14 06:00:16;;;;;;;15.43;8.63;;;;;;;;;;4991106;28;20069;-81
2022/09/14 06:02:50;;;;;;;14.88;9.00;;;;;;;;;;4992179;28;20046;-82
2022/09/14 06:05:17;;;;;;;15.40;9.07;;;;;;;;;;4992904;28;20054;-82
2022/09/14 06:07:43;;;;;;;18.77;10.15;;;;;;;;;;4976261;28;20046;-82
2022/09/14 06:10:10;;;;;;;15.23;9.63;;;;;;;;;;4991665;28;20062;-82
2022/09/14 06:12:37;;;;;;;16.40;10.30;;;;;;;;;;4991070;28;20050;-82
2022/09/14 06:15:04;;;;;;;17.42;9.00;;;;;;;;;;4993145;28;20050;-82
2022/09/14 06:17:30;;;;;;;14.43;8.77;;;;;;;;;;4993218;28;20061;-82
2022/09/14 06:19:57;;;;;;;14.05;8.60;;;;;;;;;;4991437;28;20057;-82
2022/09/14 06:22:30;;;;;;;15.10;8.15;;;;;;;;;;4992142;28;20143;-82
2022/09/14 06:24:56;;;;;;;12.15;8.68;;;;;;;;;;4975144;28;20147;-82
2022/09/14 06:27:23;;;;;;;14.18;8.38;;;;;;;;;;4991511;28;20119;-82
2022/09/14 06:29:51;;;;;;;12.60;8.60;;;;;;;;;;4990387;28;20133;-82
2022/09/14 06:32:17;;;;;;;18.35;8.82;;;;;;;;;;4992787;28;20094;-81
2022/09/14 06:34:44;;;;;;;16.30;8.15;;;;;;;;;;4992125;28;20050;-82
2022/09/14 06:37:11;;;;;;;11.98;8.15;;;;;;;;;;4993791;28;20050;-81
2022/09/14 06:39:37;;;;;;;14.50;8.38;;;;;;;;;;5007195;28;20038;-82
2022/09/14 06:42:04;;;;;;;12.68;8.55;;;;;;;;;;5013709;28;20042;-82
2022/09/14 06:44:30;;;;;;;13.27;8.55;;;;;;;;;;5004052;28;20426;-81
2022/09/14 06:46:56;;;;;;;15.75;8.32;;;;;;;;;;4991824;28;20055;-81
2022/09/14 06:49:23;;;;;;;12.57;8.63;;;;;;;;;;4990398;28;20050;-81
2022/09/14 06:51:50;;;;;;;13.98;9.38;;;;;;;;;;4991712;28;20058;-81
2022/09/14 06:54:17;;;;;;;14.48;9.30;;;;;;;;;;4993108;28;20061;-82
2022/09/14 06:56:44;;;;;;;14.90;9.93;;;;;;;;;;4995823;28;20129;-81
2022/09/14 06:59:12;;;;;;;16.17;9.27;;;;;;;;;;4994413;28;20050;-81
2022/09/14 07:01:38;;;;;;;16.23;10.20;;;;;;;;;;4996647;28;20042;-82
2022/09/14 07:04:05;;;;;;;16.30;9.95;;;;;;;;;;5003930;28;20053;-81
2022/09/14 07:06:32;;;;;;;15.75;10.68;;;;;;;;;;5016517;28;20109;-82
2022/09/14 07:09:02;;;;;;;18.85;10.27;;;;;;;;;;5016223;28;20512;-81
2022/09/14 07:11:28;;;;;;;18.73;10.93;;;;;;;;;;5015542;28;20090;-82
2022/09/14 07:13:58;;;;;;;15.38;9.70;;;;;;;;;;5013636;28;20056;-82
2022/09/14 07:16:25;;;;;;;16.90;9.35;;;;;;;;;;5017467;28;20046;-82
2022/09/14 07:18:52;;;;;;;18.77;10.95;;;;;;;;;;5014405;28;20061;-82
2022/09/14 07:21:20;;;;;;;14.40;10.00;;;;;;;;;;5017955;28;20053;-79
2022/09/14 07:23:47;;;;;;;11.95;7.93;;;;;;;;;;5001346;28;20050;-80
2022/09/14 07:26:13;;;;;;;13.95;7.75;;;;;;;;;;5014469;28;20054;-81
2022/09/14 07:28:40;;;;;;;13.93;7.15;;;;;;;;;;5015106;28;20056;-82
2022/09/14 07:31:17;;;;;;;12.18;7.05;;;;;;;;;;4998145;28;20060;-81
2022/09/14 07:33:44;;;;;;;12.65;8.13;;;;;;;;;;5012670;28;20054;-81
2022/09/14 07:36:11;;;;;;;10.82;7.03;;;;;;;;;;5014246;28;20050;-81
2022/09/14 07:38:38;;;;;;;12.15;8.30;;;;;;;;;;5013070;28;20054;-81
2022/09/14 07:41:19;;;;;;;14.18;8.20;;;;;;;;;;5013514;28;20056;-80
2022/09/14 07:43:52;;;;;;;14.68;8.63;;;;;;;;;;5012835;28;20042;-81
2022/09/14 07:46:19;;;;;;;11.93;7.80;;;;;;;;;;5013956;28;20442;-81
2022/09/14 07:48:46;;;;;;;12.23;9.07;;;;;;;;;;5011880;28;20305;-79
2022/09/14 07:51:13;;;;;;;15.40;9.57;;;;;;;;;;5013547;28;20050;-81
2022/09/14 07:53:44;;;;;;;15.13;10.10;;;;;;;;;;5013511;28;20049;-81
2022/09/14 07:56:12;;;;;;;18.38;10.05;;;;;;;;;;5013342;28;20584;-81
2022/09/14 07:58:39;;;;;;;15.63;9.88;;;;;;;;;;5011471;28;20050;-81
2022/09/14 08:01:07;;;;;;;16.95;11.55;;;;;;;;;;5013204;28;20054;-80
2022/09/14 08:03:38;;;;;;;16.20;10.18;;;;;;;;;;5008491;28;20053;-79
2022/09/14 08:06:09;;;;;;;15.82;10.60;;;;;;;;;;4992148;28;20069;-81
2022/09/14 08:08:37;;;;;;;19.42;10.90;;;;;;;;;;5011870;28;20478;-80
2022/09/14 08:11:09;;;;;;;20.50;12.23;;;;;;;;;;5012173;28;20053;-81
2022/09/14 08:13:37;;;;;;;22.83;12.63;;;;;;;;;;5011177;28;20045;-79
2022/09/14 08:16:04;;;;;;;19.27;12.70;;;;;;;;;;5012367;28;20054;-81
2022/09/14 08:18:32;;;;;;;21.88;12.80;;;;;;;;;;5010778;28;20080;-81
2022/09/14 08:21:05;;;;;;;19.83;12.32;;;;;;;;;;5013072;28;20156;-80
2022/09/14 08:23:32;;;;;;;22.15;13.73;;;;;;;;;;5011751;28;20050;-79
2022/09/14 08:26:02;;;;;;;21.55;12.95;;;;;;;;;;5012230;28;20061;-80
2022/09/14 08:28:29;;;;;;;23.20;13.90;;;;;;;;;;5011095;28;20057;-79
2022/09/14 08:31:00;;;;;;;29.98;15.15;;;;;;;;;;5012612;28;20368;-80
2022/09/14 08:33:26;;;;;;;24.70;14.90;;;;;;;;;;4993326;28;20146;-80
2022/09/14 08:35:53;;;;;;;25.48;14.98;;;;;;;;;;5012499;28;20052;-80
2022/09/14 08:38:23;;;;;;;26.55;14.45;;;;;;;;;;5011898;28;20178;-80
2022/09/14 08:40:50;;;;;;;24.88;14.38;;;;;;;;;;5011795;28;20125;-81
2022/09/14 08:43:17;;;;;;;23.17;14.60;;;;;;;;;;5010455;28;20501;-78
2022/09/14 08:45:44;;;;;;;24.90;14.93;;;;;;;;;;5011611;28;20204;-80
2022/09/14 08:48:19;;;;;;;26.02;14.18;;;;;;;;;;5010842;28;20054;-80
2022/09/14 08:50:45;;;;;;;25.58;14.73;;;;;;;;;;5011943;28;20045;-79
2022/09/14 08:53:11;;;;;;;25.35;14.55;;;;;;;;;;5011329;28;20064;-79
2022/09/14 08:55:42;;;;;;;26.15;15.70;;;;;;;;;;5011859;28;20498;-78
2022/09/14 08:58:08;;;;;;;25.08;15.50;;;;;;;;;;5009754;28;20057;-79
2022/09/14 09:00:37;;;;;;;20.33;13.25;;;;;;;;;;5011230;28;20424;-81
2022/09/14 09:03:13;;;;;;;24.10;13.48;;;;;;;;;;5009913;28;20181;-81
2022/09/14 09:05:55;;;;;;;21.73;12.43;;;;;;;;;;4972867;28;20054;-81
2022/09/14 09:08:21;;;;;;;19.02;12.30;;;;;;;;;;4954422;28;20051;-81
2022/09/14 09:10:50;;;;;;;19.48;12.00;;;;;;;;;;4972281;28;20051;-81
2022/09/14 09:13:19;;;;;;;20.40;11.57;;;;;;;;;;4970672;28;20228;-80
2022/09/14 09:15:49;;;;;;;14.60;10.50;;;;;;;;;;4971825;28;20047;-81
2022/09/14 09:18:29;;;;;;;14.40;9.95;;;;;;;;;;4970156;28;20061;-81
2022/09/14 09:21:13;;;;;;;15.75;9.93;;;;;;;;;;4972250;28;20122;-81
2022/09/14 09:23:40;;;;;;;15.45;9.77;;;;;;;;;;4972292;28;20527;-80
2022/09/14 09:26:09;;;;;;;17.05;9.38;;;;;;;;;;4971860;28;20398;-81
2022/09/14 09:28:42;;;;;;;15.05;10.20;;;;;;;;;;4970148;28;20440;-80
2022/09/14 09:31:10;;;;;;;15.32;10.60;;;;;;;;;;4971877;28;20057;-82
2022/09/14 09:33:40;;;;;;;16.67;10.88;;;;;;;;;;4975410;28;20093;-79
2022/09/14 09:36:07;;;;;;;19.58;10.88;;;;;;;;;;4980847;28;20058;-81
2022/09/14 09:38:34;;;;;;;16.55;10.93;;;;;;;;;;4971129;28;20047;-81
2022/09/14 09:41:06;;;;;;;17.80;10.75;;;;;;;;;;4955090;28;20081;-81
2022/09/14 09:43:32;;;;;;;18.92;11.07;;;;;;;;;;4970945;28;20055;-81
2022/09/14 09:46:14;;;;;;;21.65;10.98;;;;;;;;;;4972557;28;20047;-81
2022/09/14 09:48:42;;;;;;;18.38;11.90;;;;;;;;;;4969593;28;20285;-82
2022/09/14 09:51:29;;;;;;;19.10;10.75;;;;;;;;;;4973204;28;20517;-82
2022/09/14 09:54:07;;;;;;;19.20;11.27;;;;;;;;;;4971742;28;20046;-81
2022/09/14 09:56:36;;;;;;;17.17;10.48;;;;;;;;;;4955064;28;20047;-82
2022/09/14 09:59:19;;;;;;;18.63;11.52;;;;;;;;;;4953451;28;20049;-81
2022/09/14 10:01:46;;;;;;;15.95;9.85;;;;;;;;;;4972751;28;20487;-81
2022/09/14 10:04:20;;;;;;;13.48;7.88;;;;;;;;;;4980133;28;20129;-81
2022/09/14 10:06:47;;;;;;;11.70;7.35;;;;;;;;;;4998739;28;20069;-81
2022/09/14 10:09:15;;;;;;;15.70;9.68;;;;;;;;;;5005439;28;20439;-80
2022/09/14 10:11:44;;;;;;;19.15;11.18;;;;;;;;;;5002770;28;20062;-80
2022/09/14 10:14:25;;;;;;;20.45;11.73;;;;;;;;;;5013149;28;20088;-79
2022/09/14 10:16:51;;;;;;;20.58;13.73;;;;;;;;;;5006467;28;20062;-80
2022/09/14 10:19:23;;;;;;;22.45;13.60;;;;;;;;;;4991713;28;20080;-80
2022/09/14 10:22:03;;;;;;;19.80;13.27;;;;;;;;;;4991728;28;20085;-80
2022/09/14 10:24:30;;;;;;;19.90;12.82;;;;;;;;;;4991459;28;20054;-79
2022/09/14 10:26:57;;;;;;;19.58;12.88;;;;;;;;;;4989216;28;20444;-79
2022/09/14 10:29:27;;;;;;;19.27;12.18;;;;;;;;;;4988335;28;20054;-80
2022/09/14 10:31:57;;;;;;;12.13;8.13;;;;;;;;;;4989777;28;20077;-80
2022/09/14 10:34:24;;;;;;;11.25;7.88;;;;;;;;;;4989776;28;20050;-80
2022/09/14 10:36:58;;;;;;;13.05;7.93;;;;;;;;;;4990783;28;20054;-79
2022/09/14 10:39:25;;;;;;;11.20;7.30;;;;;;;;;;4989506;28;20059;-79
2022/09/14 10:41:54;;;;;;;9.07;6.80;;;;;;;;;;4990577;28;20268;-80
2022/09/14 10:44:21;;;;;;;11.80;8.32;;;;;;;;;;4988772;28;20495;-79
2022/09/14 10:46:53;;;;;;;10.23;7.22;;;;;;;;;;4990964;28;20047;-79
2022/09/14 10:49:39;;;;;;;10.23;7.63;;;;;;;;;;4989250;28;20054;-78
2022/09/14 10:52:18;;;;;;;8.82;7.15;;;;;;;;;;4991295;28;20054;-79
2022/09/14 10:55:01;;;;;;;10.05;7.35;;;;;;;;;;4990139;28;20141;-78
2022/09/14 10:57:34;;;;;;;12.13;6.80;;;;;;;;;;4989810;28;20493;-80
2022/09/14 11:00:11;;;;;;;9.57;6.60;;;;;;;;;;4990123;28;20061;-79
2022/09/14 11:02:57;;;;;;;8.32;6.10;;;;;;;;;;4990981;28;20158;-80
2022/09/14 11:05:23;;;;;;;13.52;8.05;;;;;;;;;;5008900;28;20077;-79
2022/09/14 11:07:54;;;;;;;13.65;8.18;;;;;;;;;;5010303;28;20056;-79
2022/09/14 11:10:23;;;;;;;11.48;8.35;;;;;;;;;;5009457;28;20046;-78
2022/09/14 11:12:59;;;;;;;12.50;8.55;;;;;;;;;;5009091;28;20556;-78
2022/09/14 11:15:39;;;;;;;12.30;8.65;;;;;;;;;;5014942;28;20072;-80
2022/09/14 11:18:09;;;;;;;13.70;9.40;;;;;;;;;;5011746;28;20136;-79
2022/09/14 11:20:39;;;;;;;15.00;10.27;;;;;;;;;;5015410;28;20053;-80
2022/09/14 11:23:33;;;;;;;14.40;10.13;;;;;;;;;;5011859;28;20494;-79
2022/09/14 11:26:05;;;;;;;12.15;9.43;;;;;;;;;;5012374;28;20505;-79
2022/09/14 11:28:37;;;;;;;17.05;11.63;;;;;;;;;;5016391;28;20038;-79
2022/09/14 11:31:11;;;;;;;14.93;10.38;;;;;;;;;;5012686;28;20053;-80
2022/09/14 11:33:56;;;;;;;14.93;11.02;;;;;;;;;;5011808;28;20050;-80
2022/09/14 11:36:29;;;;;;;12.52;9.70;;;;;;;;;;5014836;28;20297;-80
2022/09/14 11:39:00;;;;;;;12.35;9.95;;;;;;;;;;5011079;28;20065;-81
2022/09/14 11:41:38;;;;;;;14.25;9.55;;;;;;;;;;5019465;28;20064;-81
2022/09/14 11:44:16;;;;;;;14.07;8.55;;;;;;;;;;5013356;28;20057;-80
2022/09/14 11:47:04;;;;;;;15.68;9.00;;;;;;;;;;5025995;28;20060;-78
2022/09/14 11:49:42;;;;;;;13.13;8.10;;;;;;;;;;5022622;28;20061;-81
2022/09/14 11:52:14;;;;;;;11.50;8.55;;;;;;;;;;5018823;28;20049;-81
2022/09/14 11:54:41;;;;;;;12.20;8.45;;;;;;;;;;5019521;28;20045;-80
2022/09/14 11:57:15;;;;;;;11.20;8.50;;;;;;;;;;5019889;28;20437;-81
2022/09/14 11:59:43;;;;;;;13.82;8.32;;;;;;;;;;5016876;28;20053;-80
2022/09/14 12:02:22;;;;;;;10.05;7.90;;;;;;;;;;4999218;28;20425;-80
2022/09/14 12:05:15;;;;;;;10.30;6.35;;;;;;;;;;5001557;28;20451;-80
2022/09/14 12:07:42;;;;;;;9.27;6.63;;;;;;;;;;4966895;28;20058;-81
2022/09/14 12:10:16;;;;;;;9.80;6.97;;;;;;;;;;4996045;28;20046;-80
2022/09/14 12:12:53;;;;;;;8.52;6.43;;;;;;;;;;4979267;28;20525;-82
2022/09/14 12:15:26;;;;;;;9.30;6.57;;;;;;;;;;4998756;28;20594;-80
2022/09/14 12:18:12;;;;;;;8.85;5.60;;;;;;;;;;4993998;28;20062;-80
2022/09/14 12:20:41;;;;;;;8.93;5.85;;;;;;;;;;4993407;28;20050;-81
2022/09/14 12:23:14;;;;;;;10.85;6.18;;;;;;;;;;4993673;28;20138;-80
2022/09/14 12:25:52;;;;;;;9.65;6.10;;;;;;;;;;4994735;28;20046;-80
2022/09/14 12:28:27;;;;;;;9.15;6.28;;;;;;;;;;4992786;28;20046;-79
2022/09/14 12:30:53;;;;;;;10.23;6.43;;;;;;;;;;4994136;28;20046;-80
2022/09/14 12:33:32;;;;;;;8.00;5.43;;;;;;;;;;4994040;28;20054;-80
2022/09/14 12:35:59;;;;;;;6.30;3.80;;;;;;;;;;4994663;28;20045;-80
2022/09/14 12:38:28;;;;;;;3.90;2.53;;;;;;;;;;4993111;28;20058;-80
2022/09/14 12:40:55;;;;;;;3.90;2.50;;;;;;;;;;4992871;28;20050;-79
2022/09/14 12:43:42;;;;;;;2.65;1.60;;;;;;;;;;4992406;28;20550;-80
2022/09/14 12:46:08;;;;;;;1.90;1.50;;;;;;;;;;4983285;28;20043;-79
2022/09/14 12:48:47;;;;;;;2.10;1.67;;;;;;;;;;4980340;28;20050;-79
2022/09/14 12:51:16;;;;;;;2.17;1.92;;;;;;;;;;4980914;28;20056;-79
2022/09/14 12:53:43;;;;;;;2.40;2.00;;;;;;;;;;4998834;28;20054;-78
2022/09/14 12:56:19;;;;;;;3.58;2.30;;;;;;;;;;4994395;28;20061;-79
2022/09/14 12:58:54;;;;;;;3.72;2.63;;;;;;;;;;4991536;28;20618;-78
2022/09/14 13:01:33;;;;;;;3.63;2.13;;;;;;;;;;4993135;28;20513;-79
2022/09/14 13:04:01;;;;;;;5.30;3.10;;;;;;;;;;4999177;28;20401;-79
2022/09/14 13:06:39;;;;;;;4.32;3.17;;;;;;;;;;5013863;28;20450;-80
2022/09/14 13:09:10;;;;;;;7.47;3.15;;;;;;;;;;5011881;28;20530;-80
2022/09/14 13:11:39;;;;;;;2.83;2.35;;;;;;;;;;5012750;28;20045;-80
2022/09/14 13:14:06;;;;;;;4.43;2.95;;;;;;;;;;4994422;28;20164;-80
2022/09/14 13:16:38;;;;;;;3.75;2.70;;;;;;;;;;5011884;28;20042;-80
2022/09/14 13:19:05;;;;;;;3.45;2.55;;;;;;;;;;5011226;28;20046;-80
2022/09/14 13:21:44;;;;;;;3.88;2.42;;;;;;;;;;5002814;28;20101;-80
2022/09/14 13:24:18;;;;;;;3.20;2.45;;;;;;;;;;4991302;28;20046;-81
2022/09/14 13:26:44;;;;;;;3.83;2.40;;;;;;;;;;4989657;28;20049;-81
2022/09/14 13:29:13;;;;;;;2.65;1.70;;;;;;;;;;4990387;28;20507;-81
2022/09/14 13:31:40;;;;;;;4.47;1.65;;;;;;;;;;4991114;28;20101;-81
2022/09/14 13:34:06;;;;;;;2.60;1.60;;;;;;;;;;5000654;28;20042;-79
2022/09/14 13:36:39;;;;;;;2.25;1.60;;;;;;;;;;5013834;28;20115;-80
2022/09/14 13:39:12;;;;;;;3.47;1.55;;;;;;;;;;5007049;28;20047;-80
2022/09/14 13:41:41;;;;;;;5.22;1.80;;;;;;;;;;4991253;28;20050;-80
2022/09/14 13:44:07;;;;;;;4.25;1.80;;;;;;;;;;4990457;28;20057;-81
2022/09/14 13:46:36;;;;;;;3.47;2.10;;;;;;;;;;4991066;28;20559;-80
2022/09/14 13:49:04;;;;;;;3.65;2.33;;;;;;;;;;4989613;28;20050;-81
2022/09/14 13:51:31;;;;;;;4.40;2.30;;;;;;;;;;4986300;28;20042;-82
2022/09/14 13:54:14;;;;;;;4.80;2.78;;;;;;;;;;4972756;28;20056;-83
2022/09/14 13:56:40;;;;;;;7.15;3.20;;;;;;;;;;4999537;28;20254;-82
2022/09/14 13:59:07;;;;;;;5.30;3.30;;;;;;;;;;5009183;28;20114;-84
2022/09/14 14:01:41;;;;;;;4.30;3.22;;;;;;;;;;4991533;28;20137;-83
2022/09/14 14:04:26;;;;;;;8.70;3.97;;;;;;;;;;4989195;28;20463;-83
2022/09/14 14:07:01;;;;;;;4.90;4.20;;;;;;;;;;4989846;28;20052;-82
2022/09/14 14:09:41;;;;;;;5.05;4.22;;;;;;;;;;4986705;28;20046;-80
2022/09/14 14:12:08;;;;;;;7.75;5.05;;;;;;;;;;4989172;28;20046;-81
2022/09/14 14:14:34;;;;;;;7.25;5.50;;;;;;;;;;4989218;28;20134;-81
2022/09/14 14:17:20;;;;;;;9.50;5.97;;;;;;;;;;4990141;28;20396;-81
2022/09/14 14:19:47;;;;;;;7.43;5.90;;;;;;;;;;4988223;28;20525;-82
2022/09/14 14:22:13;;;;;;;7.35;6.22;;;;;;;;;;4992116;28;20391;-82
2022/09/14 14:24:49;;;;;;;8.60;6.47;;;;;;;;;;4993342;28;20051;-80
2022/09/14 14:27:39;;;;;;;10.82;6.30;;;;;;;;;;4977900;28;20551;-79
2022/09/14 14:30:16;;;;;;;9.00;6.50;;;;;;;;;;4992151;28;20132;-80
2022/09/14 14:32:47;;;;;;;11.48;7.57;;;;;;;;;;4975004;28;20141;-82
2022/09/14 14:35:15;;;;;;;10.32;6.72;;;;;;;;;;4975847;28;20061;-80
2022/09/14 14:37:42;;;;;;;9.50;6.78;;;;;;;;;;4991570;28;20065;-80
2022/09/14 14:40:12;;;;;;;10.98;7.10;;;;;;;;;;4990965;28;20057;-80
2022/09/14 14:42:38;;;;;;;10.65;7.65;;;;;;;;;;4990678;28;20094;-80
2022/09/14 14:45:06;;;;;;;11.02;7.72;;;;;;;;;;4991364;28;20046;-80
2022/09/14 14:47:32;;;;;;;9.75;6.90;;;;;;;;;;4991897;28;20053;-80